Time;durP1;ratioP1;P1;durP2;ratioP2;P2;SDS_P1;SDS_P2;PMS_P1;PMS_P2;Temp;Humidity;BMP_temperature;BMP_pressure;BME280_temperature;BME280_humidity;BME280_pressure;Samples;Min_cycle;Max_cycle;Signal;HPM_P1;HPM_P2
2022/01/30 00:00:43;;;;;;;23.92;2.90;;;;;;;-149.78;100.00;50420.59;5064829;28;20032;-66
2022/01/30 00:03:09;;;;;;;17.00;3.17;;;;;;;-149.78;100.00;50432.31;5064518;28;20520;-66
2022/01/30 00:05:35;;;;;;;17.17;3.40;;;;;;;-149.78;100.00;50449.94;5064052;28;20146;-66
2022/01/30 00:08:00;;;;;;;22.75;3.25;;;;;;;-149.78;100.00;50467.53;5064194;28;20028;-66
2022/01/30 00:10:26;;;;;;;22.15;3.53;;;;;;;-149.78;100.00;50440.16;5063766;28;20127;-67
2022/01/30 00:12:58;;;;;;;16.35;3.00;;;;;;;-149.78;100.00;50434.28;5066852;28;20040;-66
2022/01/30 00:15:37;;;;;;;22.20;2.75;;;;;;;-149.78;100.00;50463.63;5068604;28;20024;-66
2022/01/30 00:18:14;;;;;;;25.00;3.15;;;;;;;-149.78;100.00;50424.50;5068687;28;20043;-66
2022/01/30 00:20:42;;;;;;;21.08;4.70;;;;;;;-149.78;100.00;50451.88;5068922;28;20028;-67
2022/01/30 00:23:25;;;;;;;19.52;3.47;;;;;;;-149.78;100.00;50432.31;5067318;28;20044;-62
2022/01/30 00:25:53;;;;;;;22.35;4.72;;;;;;;-149.78;100.00;50491.00;5067532;28;20033;-62
2022/01/30 00:28:21;;;;;;;14.05;2.75;;;;;;;-149.78;100.00;50447.97;5067430;28;20429;-62
2022/01/30 00:30:49;;;;;;;23.65;3.00;;;;;;;-149.78;100.00;50475.34;5067711;28;20056;-62
2022/01/30 00:33:14;;;;;;;20.13;4.07;;;;;;;-149.78;100.00;50444.06;5069316;28;20115;-66
2022/01/30 00:35:40;;;;;;;20.15;3.00;;;;;;;-149.78;100.00;50475.34;5074603;28;20120;-66
2022/01/30 00:38:11;;;;;;;25.17;3.85;;;;;;;-149.78;100.00;50440.16;5051705;28;20051;-62
2022/01/30 00:40:38;;;;;;;13.13;2.90;;;;;;;-149.78;100.00;50475.34;5065941;28;20394;-62
2022/01/30 00:43:05;;;;;;;20.55;3.05;;;;;;;-149.78;100.00;50451.88;5068508;28;20051;-66
2022/01/30 00:45:30;;;;;;;18.23;3.15;;;;;;;-149.78;100.00;50463.63;5066803;28;20037;-66
2022/01/30 00:47:56;;;;;;;20.58;2.92;;;;;;;-149.78;100.00;50471.44;5067476;28;20032;-66
2022/01/30 00:50:22;;;;;;;19.38;3.40;;;;;;;-149.78;100.00;50440.16;5067708;28;20114;-66
2022/01/30 00:52:53;;;;;;;19.92;2.95;;;;;;;-149.78;100.00;50494.91;5066661;28;20036;-66
2022/01/30 00:55:20;;;;;;;17.88;3.13;;;;;;;-149.78;100.00;50422.56;5067859;28;20028;-66
2022/01/30 00:57:45;;;;;;;16.80;2.83;;;;;;;-149.78;100.00;50447.97;5066694;28;20029;-66
2022/01/30 01:00:12;;;;;;;16.25;2.53;;;;;;;-149.78;100.00;50455.81;5064343;28;20032;-66
2022/01/30 01:02:37;;;;;;;18.25;2.70;;;;;;;-149.78;100.00;50449.94;5067205;28;20053;-66
2022/01/30 01:05:06;;;;;;;16.73;2.63;;;;;;;-149.78;100.00;50485.13;5067410;28;20078;-66
2022/01/30 01:07:33;;;;;;;17.20;3.42;;;;;;;-149.78;100.00;50483.19;5067793;28;20124;-66
2022/01/30 01:10:15;;;;;;;22.48;3.80;;;;;;;-149.78;100.00;50447.97;5067942;28;20116;-66
2022/01/30 01:23:43;;;;;;;19.92;2.80;;;;;;;-149.78;100.00;50459.72;5066742;28;20037;-66
2022/01/30 01:26:09;;;;;;;15.13;3.90;;;;;;;-149.78;100.00;50471.44;5067710;28;20064;-66
2022/01/30 01:28:35;;;;;;;14.52;2.92;;;;;;;-149.78;100.00;50447.97;5067859;28;20067;-66
2022/01/30 01:31:02;;;;;;;19.90;3.17;;;;;;;-149.78;100.00;50489.03;5068076;28;21012;-66
2022/01/30 01:33:39;;;;;;;18.00;2.40;;;;;;;-149.78;100.00;50436.25;5068394;28;20052;-66
2022/01/30 01:36:04;;;;;;;17.80;2.70;;;;;;;-149.78;100.00;50444.06;5067927;28;20029;-62
2022/01/30 01:38:30;;;;;;;19.23;2.72;;;;;;;-149.78;100.00;50420.59;5067665;28;20110;-62
2022/01/30 01:40:56;;;;;;;19.10;2.75;;;;;;;-149.78;100.00;50451.88;5067519;28;20113;-66
2022/01/30 01:43:24;;;;;;;18.98;2.45;;;;;;;-149.78;100.00;50479.28;5067596;28;20102;-66
2022/01/30 01:45:53;;;;;;;22.90;2.78;;;;;;;-149.78;100.00;50463.63;5067698;28;20074;-66
2022/01/30 01:48:19;;;;;;;12.05;2.45;;;;;;;-149.78;100.00;50457.75;5067889;28;20116;-66
2022/01/30 01:51:06;;;;;;;26.65;3.92;;;;;;;-149.78;100.00;50494.91;5067838;28;20131;-62
2022/01/30 01:53:33;;;;;;;28.77;3.33;;;;;;;-149.78;100.00;50463.63;5067634;28;20063;-66
2022/01/30 01:55:58;;;;;;;16.05;2.47;;;;;;;-149.78;100.00;50434.28;5067309;28;20436;-66
2022/01/30 01:58:25;;;;;;;11.57;1.67;;;;;;;-149.78;100.00;50440.16;5067588;28;20039;-66
2022/01/30 02:00:51;;;;;;;12.48;2.25;;;;;;;-149.78;100.00;50475.34;5049659;28;20388;-66
2022/01/30 02:03:19;;;;;;;17.45;2.35;;;;;;;-149.78;100.00;50471.44;5067448;28;20040;-66
2022/01/30 02:05:54;;;;;;;16.45;2.47;;;;;;;-149.78;100.00;50471.44;5067778;28;20025;-66
2022/01/30 02:08:35;;;;;;;15.50;2.20;;;;;;;-149.78;100.00;50491.00;5067122;28;20403;-62
2022/01/30 02:11:10;;;;;;;16.50;3.30;;;;;;;-149.78;100.00;50463.63;5067104;28;20036;-62
2022/01/30 02:24:20;;;;;;;13.95;2.65;;;;;;;-149.78;100.00;50477.31;5066775;28;20048;-67
2022/01/30 02:26:47;;;;;;;9.88;1.67;;;;;;;-149.78;100.00;50459.72;5066676;28;20078;-66
2022/01/30 02:29:13;;;;;;;11.45;2.65;;;;;;;-149.78;100.00;50463.63;5066606;28;20032;-62
2022/01/30 02:31:41;;;;;;;16.58;2.95;;;;;;;-149.78;100.00;50465.56;5065858;28;20032;-62
2022/01/30 02:34:10;;;;;;;21.17;3.33;;;;;;;-149.78;100.00;50506.66;5066221;28;20082;-62
2022/01/30 02:36:52;;;;;;;14.43;2.10;;;;;;;-149.78;100.00;50455.81;5065682;28;22226;-62
2022/01/30 02:39:39;;;;;;;30.27;3.97;;;;;;;-149.78;100.00;50475.34;5064778;28;20117;-62
2022/01/30 02:42:24;;;;;;;15.98;2.50;;;;;;;-149.78;100.00;50451.88;5065821;28;20052;-63
2022/01/30 02:45:05;;;;;;;14.30;3.45;;;;;;;-149.78;100.00;50475.34;5034515;28;20381;-62
2022/01/30 02:53:18;;;;;;;13.35;2.15;;;;;;;-149.78;100.00;50447.97;5044892;28;20538;-62
2022/01/30 02:55:44;;;;;;;14.70;2.20;;;;;;;-149.78;100.00;50447.97;5063235;28;20036;-66
2022/01/30 02:58:09;;;;;;;16.10;2.55;;;;;;;-149.78;100.00;50479.28;5064888;28;20054;-66
2022/01/30 03:00:35;;;;;;;11.48;2.33;;;;;;;-149.78;100.00;50471.44;5062306;28;20037;-67
2022/01/30 03:03:01;;;;;;;13.55;2.35;;;;;;;-149.78;100.00;50418.63;5046208;28;20025;-67
2022/01/30 03:05:26;;;;;;;17.45;2.88;;;;;;;-149.78;100.00;50440.16;5065316;28;20063;-67
2022/01/30 03:07:52;;;;;;;10.25;2.22;;;;;;;-149.78;100.00;50479.28;5048362;28;20040;-67
2022/01/30 03:10:19;;;;;;;15.13;2.92;;;;;;;-149.78;100.00;50467.53;5065015;28;20056;-67
2022/01/30 03:12:44;;;;;;;7.25;2.00;;;;;;;-149.78;100.00;50469.50;5047141;28;20033;-67
2022/01/30 03:15:11;;;;;;;17.48;2.13;;;;;;;-149.78;100.00;50434.28;5064263;28;20087;-67
2022/01/30 03:17:36;;;;;;;15.35;1.85;;;;;;;-149.78;100.00;50451.88;5064828;28;20024;-67
2022/01/30 03:20:03;;;;;;;11.13;1.90;;;;;;;-149.78;100.00;50469.50;5063152;28;20439;-63
2022/01/30 03:22:30;;;;;;;10.70;2.05;;;;;;;-149.78;100.00;50467.53;5063610;28;20364;-62
2022/01/30 03:24:56;;;;;;;11.77;2.25;;;;;;;-149.78;100.00;50491.00;5065319;28;20106;-62
2022/01/30 03:27:22;;;;;;;9.55;1.95;;;;;;;-149.78;100.00;50479.28;5065822;28;20535;-62
2022/01/30 03:30:02;;;;;;;9.05;2.00;;;;;;;-149.78;100.00;50477.31;5065348;28;20032;-63
2022/01/30 03:32:28;;;;;;;13.10;2.22;;;;;;;-149.78;100.00;50447.97;5063055;28;20369;-63
2022/01/30 03:34:54;;;;;;;11.00;1.70;;;;;;;-149.78;100.00;50467.53;5065706;28;20062;-62
2022/01/30 03:37:20;;;;;;;10.88;1.83;;;;;;;-149.78;100.00;50432.31;5064916;28;20490;-62
2022/01/30 03:39:46;;;;;;;11.05;1.75;;;;;;;-149.78;100.00;50455.81;5060604;28;20040;-63
2022/01/30 03:42:11;;;;;;;12.63;2.15;;;;;;;-149.78;100.00;50459.72;5062617;28;20052;-63
2022/01/30 03:44:37;;;;;;;13.18;1.90;;;;;;;-149.78;100.00;50455.81;5063556;28;20025;-63
2022/01/30 03:47:04;;;;;;;20.02;2.42;;;;;;;-149.78;100.00;50459.72;5063083;28;20044;-63
2022/01/30 03:49:31;;;;;;;16.52;2.00;;;;;;;-149.78;100.00;50489.03;5064558;28;20452;-63
2022/01/30 03:51:56;;;;;;;14.27;2.03;;;;;;;-149.78;100.00;50471.44;5065317;28;20043;-63
2022/01/30 03:54:22;;;;;;;9.00;2.00;;;;;;;-149.78;100.00;50471.44;5063754;28;20123;-62
2022/01/30 03:56:47;;;;;;;10.57;2.03;;;;;;;-149.78;100.00;50485.13;5065182;28;20054;-62
2022/01/30 03:59:13;;;;;;;14.15;2.60;;;;;;;-149.78;100.00;50459.72;5065959;28;20082;-63
2022/01/30 04:01:39;;;;;;;11.30;1.88;;;;;;;-149.78;100.00;50430.38;5065384;28;20029;-63
2022/01/30 04:04:05;;;;;;;23.02;2.15;;;;;;;-149.78;100.00;50440.16;5063524;28;20044;-62
2022/01/30 04:06:31;;;;;;;15.55;2.30;;;;;;;-149.78;100.00;50471.44;5064214;28;20037;-63
2022/01/30 04:08:57;;;;;;;12.55;1.63;;;;;;;-149.78;100.00;50502.75;5064204;28;20052;-63
2022/01/30 04:11:24;;;;;;;13.73;1.50;;;;;;;-149.78;100.00;50502.75;5064399;28;20029;-62
2022/01/30 04:13:50;;;;;;;10.98;1.83;;;;;;;-149.78;100.00;50479.28;5046001;28;20044;-63
2022/01/30 04:16:16;;;;;;;10.68;1.67;;;;;;;-149.78;100.00;50483.19;5063997;28;20040;-63
2022/01/30 04:18:42;;;;;;;8.68;1.70;;;;;;;-149.78;100.00;50459.72;5064509;28;20055;-63
2022/01/30 04:21:11;;;;;;;13.45;2.65;;;;;;;-149.78;100.00;50440.16;5064852;28;20032;-63
2022/01/30 04:23:36;;;;;;;10.60;1.65;;;;;;;-149.78;100.00;50471.44;5064562;28;20036;-62
2022/01/30 04:26:02;;;;;;;13.75;1.80;;;;;;;-149.78;100.00;50475.34;5064999;28;20036;-67
2022/01/30 04:28:28;;;;;;;13.75;1.67;;;;;;;-149.78;100.00;50471.44;5047139;28;20044;-62
2022/01/30 04:30:53;;;;;;;14.23;2.10;;;;;;;-149.78;100.00;50444.06;5065042;28;20146;-62
2022/01/30 04:33:19;;;;;;;15.38;1.60;;;;;;;-149.78;100.00;50459.72;5065775;28;20032;-63
2022/01/30 04:35:45;;;;;;;11.35;1.77;;;;;;;-149.78;100.00;50491.00;5064441;28;20045;-63
2022/01/30 04:38:31;;;;;;;12.45;1.98;;;;;;;-149.78;100.00;50487.09;5062593;28;20039;-67
2022/01/30 05:04:25;;;;;;;6.85;1.40;;;;;;;-149.78;100.00;50471.44;5068269;28;20040;-63
2022/01/30 05:07:25;;;;;;;14.40;1.92;;;;;;;-149.78;100.00;50471.44;5068272;28;20024;-67
2022/01/30 05:09:37;;;;;;;11.40;1.65;;;;;;;-149.78;100.00;50479.28;5050000;28;20055;-67
2022/01/30 05:12:03;;;;;;;12.57;2.28;;;;;;;-149.78;100.00;50477.31;5068341;28;20032;-66
2022/01/30 05:14:34;;;;;;;14.90;1.90;;;;;;;-149.78;100.00;50479.28;5066303;28;20040;-63
2022/01/30 05:17:00;;;;;;;17.17;2.33;;;;;;;-149.78;100.00;50465.56;5067126;28;20497;-67
2022/01/30 05:19:26;;;;;;;13.63;3.00;;;;;;;-149.78;100.00;50416.69;5067880;28;20139;-63
2022/01/30 05:21:53;;;;;;;16.77;2.42;;;;;;;-149.78;100.00;50489.03;5067242;28;20233;-63
2022/01/30 05:24:19;;;;;;;16.25;2.10;;;;;;;-149.78;100.00;50475.34;5049368;28;20033;-63
2022/01/30 05:26:45;;;;;;;7.68;1.58;;;;;;;-149.78;100.00;50453.84;5067026;28;20484;-67
2022/01/30 05:29:11;;;;;;;9.48;1.60;;;;;;;-149.78;100.00;50477.31;5067046;28;20032;-67
2022/01/30 05:31:37;;;;;;;12.93;1.75;;;;;;;-149.78;100.00;50475.34;5066022;28;20040;-67
2022/01/30 05:34:03;;;;;;;12.05;1.85;;;;;;;-149.78;100.00;50487.09;5049054;28;20830;-67
2022/01/30 05:36:30;;;;;;;11.60;1.58;;;;;;;-149.78;100.00;50475.34;5068358;28;20138;-67
2022/01/30 05:38:58;;;;;;;15.30;1.35;;;;;;;-149.78;100.00;50496.88;5065946;28;20040;-67
2022/01/30 05:41:24;;;;;;;12.38;1.63;;;;;;;-149.78;100.00;50479.28;5065847;28;20113;-67
2022/01/30 05:43:56;;;;;;;10.68;1.55;;;;;;;-149.78;100.00;50494.91;5062707;28;20071;-67
2022/01/30 05:49:14;;;;;;;8.57;1.83;;;;;;;-149.78;100.00;50475.34;5063884;28;20076;-64
2022/01/30 05:51:40;;;;;;;9.57;1.50;;;;;;;-149.78;100.00;50451.88;5066382;28;20039;-63
2022/01/30 05:54:06;;;;;;;8.45;2.10;;;;;;;-149.78;100.00;50459.72;5066037;28;20082;-67
2022/01/30 05:56:33;;;;;;;7.35;1.30;;;;;;;-149.78;100.00;50471.44;5049435;28;20036;-67
2022/01/30 05:58:59;;;;;;;8.55;1.67;;;;;;;-149.78;100.00;50475.34;5066348;28;20036;-67
2022/01/30 06:01:25;;;;;;;7.65;1.70;;;;;;;-149.78;100.00;50498.81;5066838;28;20082;-67
2022/01/30 06:03:50;;;;;;;11.48;2.15;;;;;;;-149.78;100.00;50510.56;5065837;28;20036;-67
2022/01/30 06:06:16;;;;;;;11.57;2.10;;;;;;;-149.78;100.00;50479.28;5068748;28;20032;-63
2022/01/30 06:08:46;;;;;;;10.30;1.33;;;;;;;-149.78;100.00;50498.81;5033918;28;20109;-67
2022/01/30 06:11:12;;;;;;;9.15;1.27;;;;;;;-149.78;100.00;50487.09;5062936;28;20115;-67
2022/01/30 06:13:38;;;;;;;8.07;1.38;;;;;;;-149.78;100.00;50502.75;5065454;28;20530;-63
2022/01/30 06:16:04;;;;;;;10.25;1.50;;;;;;;-149.78;100.00;50477.31;5066115;28;20020;-63
2022/01/30 06:18:30;;;;;;;9.30;1.40;;;;;;;-149.78;100.00;50471.44;5065845;28;20024;-63
2022/01/30 06:20:57;;;;;;;11.55;2.00;;;;;;;-149.78;100.00;50479.28;5069235;28;20036;-63
2022/01/30 06:23:26;;;;;;;10.90;1.80;;;;;;;-149.78;100.00;50479.28;5067017;28;20036;-67
2022/01/30 06:25:53;;;;;;;9.68;1.80;;;;;;;-149.78;100.00;50459.72;5065642;28;20581;-67
2022/01/30 06:28:19;;;;;;;7.55;1.45;;;;;;;-149.78;100.00;50504.69;5064708;28;20029;-67
2022/01/30 06:30:44;;;;;;;6.97;1.40;;;;;;;-149.78;100.00;50502.75;5065579;28;20043;-67
2022/01/30 06:33:10;;;;;;;15.70;1.58;;;;;;;-149.78;100.00;50436.25;5065239;28;20059;-67
2022/01/30 06:35:36;;;;;;;10.05;1.10;;;;;;;-149.78;100.00;50506.66;5066593;28;20059;-63
2022/01/30 06:38:03;;;;;;;7.95;1.70;;;;;;;-149.78;100.00;50479.28;5067202;28;20025;-63
2022/01/30 06:40:28;;;;;;;8.50;1.40;;;;;;;-149.78;100.00;50506.66;5065418;28;20055;-63
2022/01/30 06:42:54;;;;;;;11.52;3.05;;;;;;;-149.78;100.00;50485.13;5066379;28;20048;-63
2022/01/30 06:45:20;;;;;;;7.68;1.30;;;;;;;-149.78;100.00;50481.22;5064943;28;20460;-63
2022/01/30 06:47:46;;;;;;;10.30;1.30;;;;;;;-149.78;100.00;50487.09;5065103;28;20047;-63
2022/01/30 06:50:13;;;;;;;10.95;1.60;;;;;;;-149.78;100.00;50489.03;5066451;28;20033;-63
2022/01/30 06:52:39;;;;;;;9.73;1.63;;;;;;;-149.78;100.00;50506.66;5064925;28;20589;-63
2022/01/30 06:55:05;;;;;;;7.35;1.67;;;;;;;-149.78;100.00;50428.41;5045495;28;20036;-63
2022/01/30 06:57:31;;;;;;;12.98;2.55;;;;;;;-149.78;100.00;50451.88;5065071;28;20031;-63
2022/01/30 06:59:57;;;;;;;7.18;1.17;;;;;;;-149.78;100.00;50481.22;5065550;28;20401;-63
2022/01/30 07:02:25;;;;;;;5.68;1.23;;;;;;;-149.78;100.00;50494.91;5062380;28;20054;-63
2022/01/30 07:04:50;;;;;;;6.95;1.77;;;;;;;-149.78;100.00;50479.28;5065678;28;20043;-63
2022/01/30 07:07:16;;;;;;;12.02;1.35;;;;;;;-149.78;100.00;50471.44;5065861;28;20035;-63
2022/01/30 07:09:42;;;;;;;8.80;1.10;;;;;;;-149.78;100.00;50494.91;5064569;28;20064;-63
2022/01/30 07:12:08;;;;;;;12.43;1.23;;;;;;;-149.78;100.00;50463.63;5063727;28;20060;-62
2022/01/30 07:14:34;;;;;;;9.70;1.45;;;;;;;-149.78;100.00;50467.53;5063289;28;20047;-63
2022/01/30 07:16:59;;;;;;;7.57;1.40;;;;;;;-149.78;100.00;50502.75;5061410;28;20036;-63
2022/01/30 07:19:25;;;;;;;7.15;1.20;;;;;;;-149.78;100.00;50449.94;5064118;28;20045;-63
2022/01/30 07:21:52;;;;;;;8.98;1.27;;;;;;;-149.78;100.00;50506.66;5065730;28;20051;-63
2022/01/30 07:24:18;;;;;;;11.77;1.77;;;;;;;-149.78;100.00;50475.34;5065170;28;20447;-63
2022/01/30 07:26:43;;;;;;;13.82;1.40;;;;;;;-149.78;100.00;50459.72;5064716;28;20025;-67
2022/01/30 07:29:12;;;;;;;9.90;1.50;;;;;;;-149.78;100.00;50483.19;5045763;28;20052;-66
2022/01/30 07:31:37;;;;;;;9.85;1.63;;;;;;;-149.78;100.00;50475.34;5065256;28;21817;-66
2022/01/30 07:34:03;;;;;;;12.02;1.50;;;;;;;-149.78;100.00;50479.28;5063809;28;20032;-66
2022/01/30 07:36:32;;;;;;;11.52;1.33;;;;;;;-149.78;100.00;50496.88;5065551;28;20028;-67
2022/01/30 07:38:59;;;;;;;7.97;1.75;;;;;;;-149.78;100.00;50498.81;5065391;28;20024;-67
2022/01/30 07:41:24;;;;;;;5.72;1.50;;;;;;;-149.78;100.00;50506.66;5060130;28;20101;-64
2022/01/30 07:43:50;;;;;;;7.18;1.20;;;;;;;-149.78;100.00;50498.81;5042531;28;20534;-64
2022/01/30 07:46:16;;;;;;;12.88;1.20;;;;;;;-149.78;100.00;50451.88;5057937;28;20041;-64
2022/01/30 07:48:42;;;;;;;12.68;2.47;;;;;;;-149.78;100.00;50520.34;5053641;28;20045;-67
2022/01/30 07:51:07;;;;;;;12.07;1.45;;;;;;;-149.78;100.00;50494.91;5056416;28;20367;-66
2022/01/30 07:53:34;;;;;;;7.88;1.42;;;;;;;-149.78;100.00;50510.56;5054419;28;20122;-67
2022/01/30 07:56:00;;;;;;;7.22;1.30;;;;;;;-149.78;100.00;50483.19;5053487;28;20078;-67
2022/01/30 07:58:26;;;;;;;10.18;1.45;;;;;;;-149.78;100.00;50487.09;5056318;28;20472;-65
2022/01/30 08:00:52;;;;;;;6.65;1.70;;;;;;;-149.78;100.00;50487.09;5056572;28;20036;-64
2022/01/30 08:03:17;;;;;;;6.82;1.42;;;;;;;-149.78;100.00;50502.75;5055221;28;20109;-63
2022/01/30 08:05:43;;;;;;;11.38;1.73;;;;;;;-149.78;100.00;50483.19;5044468;28;21365;-64
2022/01/30 08:08:09;;;;;;;9.52;1.63;;;;;;;-149.78;100.00;50522.28;5055378;28;20051;-64
2022/01/30 08:10:35;;;;;;;12.93;2.00;;;;;;;-149.78;100.00;50451.88;5052291;28;20037;-67
2022/01/30 08:13:00;;;;;;;13.57;1.55;;;;;;;-149.78;100.00;50494.91;5057066;28;20040;-67
2022/01/30 08:15:27;;;;;;;12.75;2.38;;;;;;;-149.78;100.00;50518.38;5058545;28;20078;-67
2022/01/30 08:17:53;;;;;;;7.43;1.42;;;;;;;-149.78;100.00;50522.28;5057419;28;21624;-67
2022/01/30 08:20:21;;;;;;;11.63;1.35;;;;;;;-149.78;100.00;50498.81;5055855;28;20039;-64
2022/01/30 08:22:51;;;;;;;11.30;1.42;;;;;;;-149.78;100.00;50547.72;5039700;28;20060;-63
2022/01/30 08:25:18;;;;;;;10.25;1.25;;;;;;;-149.78;100.00;50522.28;5057144;28;20415;-67
2022/01/30 08:27:45;;;;;;;13.98;1.83;;;;;;;-149.78;100.00;50518.38;5059761;28;20046;-67
2022/01/30 08:30:11;;;;;;;6.93;1.35;;;;;;;-149.78;100.00;50528.16;5057374;28;20090;-66
2022/01/30 08:32:41;;;;;;;8.20;2.20;;;;;;;-149.78;100.00;50475.34;5055492;28;20032;-64
2022/01/30 08:35:11;;;;;;;6.93;1.45;;;;;;;-149.78;100.00;50506.66;5054282;28;20029;-64
2022/01/30 08:37:37;;;;;;;4.85;1.35;;;;;;;-149.78;100.00;50479.28;5063072;28;20036;-64
2022/01/30 08:40:09;;;;;;;8.88;1.55;;;;;;;-149.78;100.00;50487.09;5047552;28;20384;-66
2022/01/30 08:42:35;;;;;;;14.00;2.70;;;;;;;-149.78;100.00;50483.19;5061986;28;20685;-66
2022/01/30 08:45:03;;;;;;;20.02;3.15;;;;;;;-149.78;100.00;50530.13;5060457;28;20075;-64
2022/01/30 08:47:30;;;;;;;11.93;2.55;;;;;;;-149.78;100.00;50479.28;5061200;28;20036;-64
2022/01/30 08:49:55;;;;;;;13.98;2.25;;;;;;;-149.78;100.00;50475.34;5063063;28;20036;-64
2022/01/30 08:52:21;;;;;;;11.88;2.85;;;;;;;-149.78;100.00;50498.81;5063828;28;20427;-65
2022/01/30 08:54:50;;;;;;;16.77;3.20;;;;;;;-149.78;100.00;50487.09;5065044;28;20039;-66
2022/01/30 08:57:16;;;;;;;16.13;3.05;;;;;;;-149.78;100.00;50508.59;5064318;28;20039;-64
2022/01/30 08:59:42;;;;;;;14.32;3.10;;;;;;;-149.78;100.00;50455.81;5062508;28;20095;-65
2022/01/30 09:02:08;;;;;;;11.27;2.22;;;;;;;-149.78;100.00;50469.50;5063489;28;20036;-65
2022/01/30 09:04:35;;;;;;;10.10;2.60;;;;;;;-149.78;100.00;50496.88;5063675;28;20044;-65
2022/01/30 09:07:00;;;;;;;8.93;2.10;;;;;;;-149.78;100.00;50467.53;5044618;28;20125;-64
2022/01/30 09:09:26;;;;;;;14.35;2.05;;;;;;;-149.78;100.00;50492.97;5045920;28;20070;-65
2022/01/30 09:11:53;;;;;;;7.10;1.45;;;;;;;-149.78;100.00;50487.09;5064942;28;20040;-67
2022/01/30 09:14:18;;;;;;;16.52;2.42;;;;;;;-149.78;100.00;50475.34;5064999;28;20108;-63
2022/01/30 09:16:45;;;;;;;10.90;2.53;;;;;;;-149.78;100.00;50463.63;5064729;28;20063;-66
2022/01/30 09:19:11;;;;;;;11.60;2.78;;;;;;;-149.78;100.00;50453.84;5065184;28;20032;-67
2022/01/30 09:21:36;;;;;;;14.48;2.25;;;;;;;-149.78;100.00;50479.28;5064755;28;20063;-65
2022/01/30 09:24:02;;;;;;;11.95;2.50;;;;;;;-149.78;100.00;50469.50;5047397;28;20048;-66
2022/01/30 09:26:28;;;;;;;9.50;1.83;;;;;;;-149.78;100.00;50491.00;5065067;28;20032;-64
2022/01/30 09:28:53;;;;;;;13.20;2.20;;;;;;;-149.78;100.00;50463.63;5051227;28;20372;-66
2022/01/30 09:31:19;;;;;;;16.20;2.22;;;;;;;-149.78;100.00;50455.81;5063620;28;20420;-64
2022/01/30 09:33:46;;;;;;;14.55;1.85;;;;;;;-149.78;100.00;50479.28;5062267;28;20040;-64
2022/01/30 09:36:13;;;;;;;10.38;1.92;;;;;;;-149.78;100.00;50475.34;5046855;28;20066;-64
2022/01/30 09:38:41;;;;;;;13.88;1.95;;;;;;;-149.78;100.00;50467.53;5044331;28;20093;-64
2022/01/30 09:41:10;;;;;;;14.75;2.03;;;;;;;-149.78;100.00;50491.00;5027810;28;20144;-64
2022/01/30 09:43:35;;;;;;;8.90;1.90;;;;;;;-149.78;100.00;50487.09;5039393;28;20127;-66
2022/01/30 09:46:03;;;;;;;11.55;1.73;;;;;;;-149.78;100.00;50447.97;5040254;28;20033;-66
2022/01/30 09:48:33;;;;;;;15.80;1.58;;;;;;;-149.78;100.00;50506.66;5044125;28;20028;-65
2022/01/30 09:51:00;;;;;;;15.93;2.42;;;;;;;-149.78;100.00;50483.19;5043102;28;20115;-66
2022/01/30 09:53:25;;;;;;;9.98;1.80;;;;;;;-149.78;100.00;50465.56;5041634;28;20061;-66
2022/01/30 09:55:51;;;;;;;17.48;2.00;;;;;;;-149.78;100.00;50498.81;5041887;28;20495;-66
2022/01/30 09:58:17;;;;;;;13.40;2.53;;;;;;;-149.78;100.00;50436.25;5043346;28;20041;-66
2022/01/30 10:00:45;;;;;;;10.88;2.42;;;;;;;-149.78;100.00;50463.63;5040795;28;20138;-66
2022/01/30 10:03:11;;;;;;;15.73;2.78;;;;;;;-149.78;100.00;50440.16;5039174;28;20088;-66
2022/01/30 10:05:38;;;;;;;13.95;2.25;;;;;;;-149.78;100.00;50475.34;5040844;28;20060;-66
2022/01/30 10:08:05;;;;;;;9.68;2.30;;;;;;;-149.78;100.00;50479.28;5042452;28;20660;-64
2022/01/30 10:10:31;;;;;;;8.10;1.95;;;;;;;-149.78;100.00;50455.81;5040118;28;20424;-64
2022/01/30 10:13:08;;;;;;;8.20;1.88;;;;;;;-149.78;100.00;50467.53;5040724;28;20061;-64
2022/01/30 10:16:04;;;;;;;14.10;2.42;;;;;;;-149.78;100.00;50459.72;5041075;28;20031;-64
2022/01/30 10:18:32;;;;;;;22.15;2.70;;;;;;;-149.78;100.00;50440.16;5040811;28;20067;-64
2022/01/30 10:20:59;;;;;;;11.80;1.95;;;;;;;-149.78;100.00;50440.16;5043676;28;20519;-64
2022/01/30 10:23:35;;;;;;;12.52;2.50;;;;;;;-149.78;100.00;50424.50;5043387;28;20037;-66
2022/01/30 10:26:06;;;;;;;14.50;2.72;;;;;;;-149.78;100.00;50459.72;5043039;28;20935;-66
2022/01/30 10:28:32;;;;;;;12.57;3.20;;;;;;;-149.78;100.00;50440.16;5044254;28;20033;-66
2022/01/30 10:31:04;;;;;;;10.93;2.45;;;;;;;-149.78;100.00;50451.88;5045146;28;20488;-66
2022/01/30 10:33:51;;;;;;;11.82;2.90;;;;;;;-149.78;100.00;50457.75;5046678;28;20037;-63
2022/01/30 10:36:25;;;;;;;18.60;4.40;;;;;;;-149.78;100.00;50461.66;5042516;28;20045;-64
2022/01/30 10:39:10;;;;;;;25.35;5.10;;;;;;;-149.78;100.00;50440.16;5037756;28;20021;-66
2022/01/30 10:41:38;;;;;;;16.77;3.53;;;;;;;-149.78;100.00;50447.97;5051067;28;20135;-67
2022/01/30 10:44:09;;;;;;;13.77;3.45;;;;;;;-149.78;100.00;50475.34;5044614;28;20131;-64
2022/01/30 10:46:46;;;;;;;16.60;3.25;;;;;;;-149.78;100.00;50451.88;5063978;28;20039;-64
2022/01/30 10:49:21;;;;;;;14.73;3.08;;;;;;;-149.78;100.00;50440.16;5059578;28;20035;-66
2022/01/30 10:51:55;;;;;;;12.15;3.60;;;;;;;-149.78;100.00;50385.38;5061530;28;20532;-66
2022/01/30 10:54:25;;;;;;;17.58;3.20;;;;;;;-149.78;100.00;50436.25;5045725;28;20430;-64
2022/01/30 10:57:05;;;;;;;14.75;2.67;;;;;;;-149.78;100.00;50475.34;5063005;28;20082;-64
2022/01/30 10:59:30;;;;;;;15.20;2.80;;;;;;;-149.78;100.00;50444.06;5063553;28;20105;-64
2022/01/30 11:02:13;;;;;;;17.95;3.92;;;;;;;-149.78;100.00;50397.13;5063578;28;20476;-67
2022/01/30 11:04:39;;;;;;;22.63;2.58;;;;;;;-149.78;100.00;50434.28;5062253;28;20025;-66
2022/01/30 11:07:05;;;;;;;17.63;2.70;;;;;;;-149.78;100.00;50432.31;5062619;28;20055;-67
2022/01/30 11:12:06;;;;;;;13.43;2.58;;;;;;;-149.78;100.00;50457.75;5062872;28;20032;-67
2022/01/30 11:14:39;;;;;;;12.65;3.28;;;;;;;-149.78;100.00;50440.16;5063056;28;20028;-66
2022/01/30 11:17:08;;;;;;;14.82;2.40;;;;;;;-149.78;100.00;50414.72;5063259;28;20040;-67
2022/01/30 11:19:48;;;;;;;17.95;2.22;;;;;;;-149.78;100.00;50414.72;5063144;28;21685;-67
2022/01/30 11:22:16;;;;;;;15.13;2.53;;;;;;;-149.78;100.00;50416.69;5062705;28;20063;-66
2022/01/30 11:24:47;;;;;;;14.48;2.60;;;;;;;-149.78;100.00;50408.84;5064315;28;20052;-67
2022/01/30 11:27:15;;;;;;;15.48;2.70;;;;;;;-149.78;100.00;50422.56;5059555;28;20029;-64
2022/01/30 11:29:41;;;;;;;16.20;2.95;;;;;;;-149.78;100.00;50432.31;5061837;28;20039;-64
2022/01/30 11:32:08;;;;;;;17.10;3.95;;;;;;;-149.78;100.00;50424.50;5060240;28;20033;-64
2022/01/30 11:34:36;;;;;;;10.45;2.17;;;;;;;-149.78;100.00;50434.28;5054216;28;20530;-67
2022/01/30 11:37:03;;;;;;;18.77;2.75;;;;;;;-149.78;100.00;50430.38;5055020;28;20060;-67
2022/01/30 11:39:28;;;;;;;13.25;2.90;;;;;;;-149.78;100.00;50436.25;5034332;28;20029;-67
2022/01/30 11:42:19;;;;;;;17.35;2.50;;;;;;;-149.78;100.00;50426.47;5057484;28;20070;-63
2022/01/30 11:44:49;;;;;;;19.73;3.00;;;;;;;-149.78;100.00;50438.19;5059111;28;20033;-63
2022/01/30 11:47:17;;;;;;;14.27;3.45;;;;;;;-149.78;100.00;50438.19;5055964;28;20051;-64
2022/01/30 11:50:03;;;;;;;21.15;2.80;;;;;;;-149.78;100.00;50438.19;5060194;28;20036;-64
2022/01/30 11:52:47;;;;;;;15.18;2.63;;;;;;;-149.78;100.00;50465.56;5058224;28;20447;-64
2022/01/30 11:55:42;;;;;;;19.88;3.38;;;;;;;-149.78;100.00;50420.59;5060839;28;20102;-65
2022/01/30 11:58:28;;;;;;;24.13;2.95;;;;;;;-149.78;100.00;50459.72;5042686;28;20059;-65
2022/01/30 12:00:53;;;;;;;17.20;3.15;;;;;;;-149.78;100.00;50420.59;5060323;28;20036;-64
2022/01/30 12:03:30;;;;;;;15.35;3.15;;;;;;;-149.78;100.00;50424.50;5061974;28;20602;-64
2022/01/30 12:06:13;;;;;;;10.88;2.33;;;;;;;-149.78;100.00;50440.16;5062451;28;20032;-64